sensor_id;sensor_type;location;lat;lon;timestamp;P1;durP1;ratioP1;P2;durP2;ratioP2
21645;SDS011;10984;45.712;4.800;2023-03-23T00:00:15;5.43;;;2.17;;
21645;SDS011;10984;45.712;4.800;2023-03-23T00:02:41;3.88;;;1.80;;
21645;SDS011;10984;45.712;4.800;2023-03-23T00:05:08;5.13;;;1.60;;
21645;SDS011;10984;45.712;4.800;2023-03-23T00:07:34;3.55;;;1.90;;
21645;SDS011;10984;45.712;4.800;2023-03-23T00:10:01;4.32;;;2.03;;
21645;SDS011;10984;45.712;4.800;2023-03-23T00:12:27;7.32;;;2.38;;
21645;SDS011;10984;45.712;4.800;2023-03-23T00:14:58;3.55;;;1.95;;
21645;SDS011;10984;45.712;4.800;2023-03-23T00:17:33;3.53;;;1.75;;
21645;SDS011;10984;45.712;4.800;2023-03-23T00:20:00;4.32;;;1.48;;
21645;SDS011;10984;45.712;4.800;2023-03-23T00:22:29;3.58;;;1.77;;
21645;SDS011;10984;45.712;4.800;2023-03-23T00:24:56;3.58;;;1.70;;
21645;SDS011;10984;45.712;4.800;2023-03-23T00:27:22;4.85;;;1.80;;
21645;SDS011;10984;45.712;4.800;2023-03-23T00:29:49;3.20;;;1.58;;
21645;SDS011;10984;45.712;4.800;2023-03-23T00:32:33;3.45;;;1.48;;
21645;SDS011;10984;45.712;4.800;2023-03-23T00:34:59;3.35;;;1.95;;
21645;SDS011;10984;45.712;4.800;2023-03-23T00:37:25;4.03;;;1.90;;
21645;SDS011;10984;45.712;4.800;2023-03-23T00:39:51;3.30;;;1.60;;
21645;SDS011;10984;45.712;4.800;2023-03-23T00:42:22;4.32;;;1.70;;
21645;SDS011;10984;45.712;4.800;2023-03-23T00:44:48;5.15;;;2.22;;
21645;SDS011;10984;45.712;4.800;2023-03-23T00:47:14;3.53;;;1.60;;
21645;SDS011;10984;45.712;4.800;2023-03-23T00:49:42;2.63;;;1.40;;
21645;SDS011;10984;45.712;4.800;2023-03-23T00:52:09;4.75;;;1.80;;
21645;SDS011;10984;45.712;4.800;2023-03-23T00:54:35;3.53;;;1.67;;
21645;SDS011;10984;45.712;4.800;2023-03-23T00:57:02;4.38;;;1.67;;
21645;SDS011;10984;45.712;4.800;2023-03-23T00:59:29;3.08;;;1.40;;
21645;SDS011;10984;45.712;4.800;2023-03-23T01:01:55;3.72;;;1.63;;
21645;SDS011;10984;45.712;4.800;2023-03-23T01:04:21;3.83;;;1.75;;
21645;SDS011;10984;45.712;4.800;2023-03-23T01:06:48;4.40;;;1.58;;
21645;SDS011;10984;45.712;4.800;2023-03-23T01:09:34;2.67;;;1.20;;
21645;SDS011;10984;45.712;4.800;2023-03-23T01:12:01;3.75;;;1.80;;
21645;SDS011;10984;45.712;4.800;2023-03-23T01:14:26;3.92;;;1.92;;
21645;SDS011;10984;45.712;4.800;2023-03-23T01:16:52;4.50;;;1.25;;
21645;SDS011;10984;45.712;4.800;2023-03-23T01:19:18;4.35;;;1.40;;
21645;SDS011;10984;45.712;4.800;2023-03-23T01:21:43;2.35;;;1.27;;
21645;SDS011;10984;45.712;4.800;2023-03-23T01:24:09;4.32;;;1.60;;
21645;SDS011;10984;45.712;4.800;2023-03-23T01:26:35;3.78;;;1.90;;
21645;SDS011;10984;45.712;4.800;2023-03-23T01:29:00;3.60;;;1.30;;
21645;SDS011;10984;45.712;4.800;2023-03-23T01:31:26;3.22;;;1.40;;
21645;SDS011;10984;45.712;4.800;2023-03-23T01:33:52;6.05;;;1.80;;
21645;SDS011;10984;45.712;4.800;2023-03-23T01:36:19;3.45;;;1.52;;
21645;SDS011;10984;45.712;4.800;2023-03-23T01:38:53;5.22;;;1.58;;
21645;SDS011;10984;45.712;4.800;2023-03-23T01:41:20;3.30;;;1.42;;
21645;SDS011;10984;45.712;4.800;2023-03-23T01:46:31;3.28;;;1.60;;
21645;SDS011;10984;45.712;4.800;2023-03-23T01:49:11;2.83;;;1.45;;
21645;SDS011;10984;45.712;4.800;2023-03-23T01:54:29;2.60;;;1.23;;
21645;SDS011;10984;45.712;4.800;2023-03-23T01:56:56;2.90;;;1.40;;
21645;SDS011;10984;45.712;4.800;2023-03-23T01:59:26;2.53;;;1.27;;
21645;SDS011;10984;45.712;4.800;2023-03-23T02:01:54;5.00;;;1.30;;
21645;SDS011;10984;45.712;4.800;2023-03-23T02:04:20;4.28;;;1.15;;
21645;SDS011;10984;45.712;4.800;2023-03-23T02:06:49;3.30;;;1.30;;
21645;SDS011;10984;45.712;4.800;2023-03-23T02:09:17;4.57;;;1.23;;
21645;SDS011;10984;45.712;4.800;2023-03-23T02:11:43;3.58;;;1.20;;
21645;SDS011;10984;45.712;4.800;2023-03-23T02:14:10;3.53;;;1.40;;
21645;SDS011;10984;45.712;4.800;2023-03-23T02:39:22;3.65;;;1.38;;
21645;SDS011;10984;45.712;4.800;2023-03-23T02:42:08;3.17;;;1.33;;
21645;SDS011;10984;45.712;4.800;2023-03-23T02:44:36;2.90;;;1.40;;
21645;SDS011;10984;45.712;4.800;2023-03-23T02:47:04;3.50;;;1.23;;
21645;SDS011;10984;45.712;4.800;2023-03-23T02:49:35;2.65;;;1.40;;
21645;SDS011;10984;45.712;4.800;2023-03-23T02:52:04;2.30;;;1.20;;
21645;SDS011;10984;45.712;4.800;2023-03-23T02:54:37;2.72;;;1.25;;
21645;SDS011;10984;45.712;4.800;2023-03-23T02:57:04;5.30;;;1.08;;
21645;SDS011;10984;45.712;4.800;2023-03-23T02:59:30;1.92;;;1.15;;
21645;SDS011;10984;45.712;4.800;2023-03-23T03:19:07;3.47;;;1.33;;
21645;SDS011;10984;45.712;4.800;2023-03-23T03:21:53;2.63;;;1.13;;
21645;SDS011;10984;45.712;4.800;2023-03-23T03:24:22;3.42;;;1.20;;
21645;SDS011;10984;45.712;4.800;2023-03-23T03:26:51;2.28;;;1.13;;
21645;SDS011;10984;45.712;4.800;2023-03-23T03:32:07;2.15;;;0.93;;
21645;SDS011;10984;45.712;4.800;2023-03-23T03:34:37;2.58;;;1.00;;
21645;SDS011;10984;45.712;4.800;2023-03-23T03:37:04;2.47;;;1.00;;
21645;SDS011;10984;45.712;4.800;2023-03-23T03:39:30;3.78;;;1.00;;
21645;SDS011;10984;45.712;4.800;2023-03-23T03:41:59;2.88;;;1.08;;
21645;SDS011;10984;45.712;4.800;2023-03-23T03:44:25;2.08;;;1.10;;
21645;SDS011;10984;45.712;4.800;2023-03-23T03:46:51;4.68;;;1.13;;
21645;SDS011;10984;45.712;4.800;2023-03-23T03:49:16;2.45;;;1.40;;
21645;SDS011;10984;45.712;4.800;2023-03-23T03:51:42;1.85;;;0.95;;
21645;SDS011;10984;45.712;4.800;2023-03-23T03:54:08;2.65;;;0.80;;
21645;SDS011;10984;45.712;4.800;2023-03-23T03:56:35;2.30;;;0.98;;
21645;SDS011;10984;45.712;4.800;2023-03-23T03:59:05;2.65;;;1.20;;
21645;SDS011;10984;45.712;4.800;2023-03-23T04:01:32;2.30;;;1.10;;
21645;SDS011;10984;45.712;4.800;2023-03-23T04:03:58;1.65;;;0.77;;
21645;SDS011;10984;45.712;4.800;2023-03-23T04:06:25;2.25;;;1.33;;
21645;SDS011;10984;45.712;4.800;2023-03-23T04:08:53;3.03;;;1.20;;
21645;SDS011;10984;45.712;4.800;2023-03-23T04:11:38;2.60;;;1.00;;
21645;SDS011;10984;45.712;4.800;2023-03-23T04:14:03;2.92;;;1.42;;
21645;SDS011;10984;45.712;4.800;2023-03-23T04:16:29;1.67;;;0.95;;
21645;SDS011;10984;45.712;4.800;2023-03-23T04:18:55;3.30;;;1.30;;
21645;SDS011;10984;45.712;4.800;2023-03-23T04:21:21;3.75;;;1.23;;
21645;SDS011;10984;45.712;4.800;2023-03-23T04:23:47;2.33;;;1.17;;
21645;SDS011;10984;45.712;4.800;2023-03-23T04:26:13;3.20;;;1.55;;
21645;SDS011;10984;45.712;4.800;2023-03-23T04:28:39;3.30;;;1.42;;
21645;SDS011;10984;45.712;4.800;2023-03-23T04:31:06;2.78;;;1.30;;
21645;SDS011;10984;45.712;4.800;2023-03-23T04:33:31;3.08;;;1.10;;
21645;SDS011;10984;45.712;4.800;2023-03-23T04:35:59;2.42;;;1.23;;
21645;SDS011;10984;45.712;4.800;2023-03-23T04:38:28;2.95;;;1.10;;
21645;SDS011;10984;45.712;4.800;2023-03-23T04:40:55;2.15;;;1.08;;
21645;SDS011;10984;45.712;4.800;2023-03-23T04:43:22;1.73;;;0.90;;
21645;SDS011;10984;45.712;4.800;2023-03-23T04:48:34;2.20;;;1.00;;
21645;SDS011;10984;45.712;4.800;2023-03-23T04:51:01;2.10;;;1.00;;
21645;SDS011;10984;45.712;4.800;2023-03-23T04:53:29;2.53;;;1.10;;
21645;SDS011;10984;45.712;4.800;2023-03-23T04:55:55;2.00;;;1.00;;
21645;SDS011;10984;45.712;4.800;2023-03-23T04:58:21;1.92;;;1.13;;
21645;SDS011;10984;45.712;4.800;2023-03-23T05:00:49;3.30;;;1.20;;
21645;SDS011;10984;45.712;4.800;2023-03-23T05:06:01;1.83;;;1.00;;
21645;SDS011;10984;45.712;4.800;2023-03-23T05:08:28;2.08;;;1.00;;
21645;SDS011;10984;45.712;4.800;2023-03-23T05:10:55;3.50;;;1.23;;
21645;SDS011;10984;45.712;4.800;2023-03-23T05:13:22;2.63;;;1.08;;
21645;SDS011;10984;45.712;4.800;2023-03-23T05:15:48;2.42;;;1.00;;
21645;SDS011;10984;45.712;4.800;2023-03-23T05:18:14;2.70;;;0.95;;
21645;SDS011;10984;45.712;4.800;2023-03-23T05:20:40;2.22;;;0.98;;
21645;SDS011;10984;45.712;4.800;2023-03-23T05:23:07;3.17;;;1.15;;
21645;SDS011;10984;45.712;4.800;2023-03-23T05:25:37;4.07;;;1.08;;
21645;SDS011;10984;45.712;4.800;2023-03-23T05:28:08;1.88;;;0.90;;
21645;SDS011;10984;45.712;4.800;2023-03-23T05:30:36;2.30;;;1.10;;
21645;SDS011;10984;45.712;4.800;2023-03-23T05:33:03;2.47;;;1.10;;
21645;SDS011;10984;45.712;4.800;2023-03-23T05:35:29;2.47;;;1.13;;
21645;SDS011;10984;45.712;4.800;2023-03-23T05:37:55;1.95;;;0.82;;
21645;SDS011;10984;45.712;4.800;2023-03-23T05:40:22;3.05;;;1.10;;
21645;SDS011;10984;45.712;4.800;2023-03-23T05:42:50;2.65;;;1.30;;
21645;SDS011;10984;45.712;4.800;2023-03-23T05:45:17;2.13;;;1.00;;
21645;SDS011;10984;45.712;4.800;2023-03-23T05:47:43;2.10;;;1.08;;
21645;SDS011;10984;45.712;4.800;2023-03-23T05:50:09;1.90;;;0.80;;
21645;SDS011;10984;45.712;4.800;2023-03-23T05:52:36;3.10;;;1.00;;
21645;SDS011;10984;45.712;4.800;2023-03-23T05:55:02;1.63;;;0.90;;
21645;SDS011;10984;45.712;4.800;2023-03-23T05:57:29;2.05;;;1.00;;
21645;SDS011;10984;45.712;4.800;2023-03-23T05:59:55;2.53;;;0.80;;
21645;SDS011;10984;45.712;4.800;2023-03-23T06:02:22;2.63;;;1.00;;
21645;SDS011;10984;45.712;4.800;2023-03-23T06:04:49;2.67;;;1.25;;
21645;SDS011;10984;45.712;4.800;2023-03-23T06:07:15;2.15;;;1.00;;
21645;SDS011;10984;45.712;4.800;2023-03-23T06:09:41;3.65;;;1.15;;
21645;SDS011;10984;45.712;4.800;2023-03-23T06:12:07;2.33;;;1.00;;
21645;SDS011;10984;45.712;4.800;2023-03-23T06:14:34;3.22;;;1.17;;
21645;SDS011;10984;45.712;4.800;2023-03-23T06:17:01;3.75;;;1.17;;
21645;SDS011;10984;45.712;4.800;2023-03-23T06:19:27;3.75;;;1.10;;
21645;SDS011;10984;45.712;4.800;2023-03-23T06:24:37;2.13;;;0.80;;
21645;SDS011;10984;45.712;4.800;2023-03-23T06:27:03;3.42;;;1.50;;
21645;SDS011;10984;45.712;4.800;2023-03-23T06:29:29;2.70;;;1.13;;
21645;SDS011;10984;45.712;4.800;2023-03-23T06:31:56;2.88;;;1.25;;
21645;SDS011;10984;45.712;4.800;2023-03-23T06:34:24;4.13;;;1.33;;
21645;SDS011;10984;45.712;4.800;2023-03-23T06:36:50;5.68;;;1.55;;
21645;SDS011;10984;45.712;4.800;2023-03-23T06:39:15;3.70;;;1.50;;
21645;SDS011;10984;45.712;4.800;2023-03-23T06:41:41;3.67;;;1.63;;
21645;SDS011;10984;45.712;4.800;2023-03-23T06:44:06;3.78;;;1.65;;
21645;SDS011;10984;45.712;4.800;2023-03-23T06:46:33;4.35;;;1.13;;
21645;SDS011;10984;45.712;4.800;2023-03-23T06:48:58;6.60;;;1.40;;
21645;SDS011;10984;45.712;4.800;2023-03-23T06:51:24;2.50;;;1.00;;
21645;SDS011;10984;45.712;4.800;2023-03-23T06:53:50;2.65;;;1.27;;
21645;SDS011;10984;45.712;4.800;2023-03-23T06:56:16;4.82;;;1.50;;
21645;SDS011;10984;45.712;4.800;2023-03-23T06:58:42;2.85;;;1.08;;
21645;SDS011;10984;45.712;4.800;2023-03-23T07:01:08;2.33;;;1.05;;
21645;SDS011;10984;45.712;4.800;2023-03-23T07:03:34;3.95;;;1.27;;
21645;SDS011;10984;45.712;4.800;2023-03-23T07:06:00;3.75;;;1.02;;
21645;SDS011;10984;45.712;4.800;2023-03-23T07:08:26;5.30;;;1.00;;
21645;SDS011;10984;45.712;4.800;2023-03-23T07:10:52;2.53;;;1.20;;
21645;SDS011;10984;45.712;4.800;2023-03-23T07:13:19;4.85;;;1.33;;
21645;SDS011;10984;45.712;4.800;2023-03-23T07:15:45;3.13;;;1.45;;
21645;SDS011;10984;45.712;4.800;2023-03-23T07:18:11;4.07;;;1.10;;
21645;SDS011;10984;45.712;4.800;2023-03-23T07:20:37;4.20;;;1.65;;
21645;SDS011;10984;45.712;4.800;2023-03-23T07:23:02;3.80;;;1.13;;
21645;SDS011;10984;45.712;4.800;2023-03-23T07:25:30;2.53;;;1.00;;
21645;SDS011;10984;45.712;4.800;2023-03-23T07:27:58;2.63;;;1.23;;
21645;SDS011;10984;45.712;4.800;2023-03-23T07:30:24;3.42;;;1.27;;
21645;SDS011;10984;45.712;4.800;2023-03-23T07:32:51;3.92;;;1.33;;
21645;SDS011;10984;45.712;4.800;2023-03-23T07:35:17;3.13;;;1.25;;
21645;SDS011;10984;45.712;4.800;2023-03-23T07:37:42;4.88;;;1.67;;
21645;SDS011;10984;45.712;4.800;2023-03-23T07:40:08;4.47;;;1.45;;
21645;SDS011;10984;45.712;4.800;2023-03-23T07:42:54;4.10;;;1.55;;
21645;SDS011;10984;45.712;4.800;2023-03-23T07:45:22;2.88;;;1.20;;
21645;SDS011;10984;45.712;4.800;2023-03-23T07:47:48;5.93;;;1.67;;
21645;SDS011;10984;45.712;4.800;2023-03-23T07:50:14;2.60;;;1.25;;
21645;SDS011;10984;45.712;4.800;2023-03-23T07:52:39;3.47;;;1.10;;
21645;SDS011;10984;45.712;4.800;2023-03-23T07:55:07;3.13;;;1.10;;
21645;SDS011;10984;45.712;4.800;2023-03-23T07:57:36;4.22;;;1.55;;
21645;SDS011;10984;45.712;4.800;2023-03-23T08:00:03;2.53;;;1.35;;
21645;SDS011;10984;45.712;4.800;2023-03-23T08:02:36;3.97;;;1.45;;
21645;SDS011;10984;45.712;4.800;2023-03-23T08:05:02;3.40;;;1.42;;
21645;SDS011;10984;45.712;4.800;2023-03-23T08:07:27;3.88;;;1.63;;
21645;SDS011;10984;45.712;4.800;2023-03-23T08:09:53;2.63;;;1.33;;
21645;SDS011;10984;45.712;4.800;2023-03-23T08:12:19;2.65;;;1.20;;
21645;SDS011;10984;45.712;4.800;2023-03-23T08:14:44;2.95;;;1.33;;
21645;SDS011;10984;45.712;4.800;2023-03-23T08:17:10;3.20;;;1.58;;
21645;SDS011;10984;45.712;4.800;2023-03-23T08:19:36;4.35;;;1.63;;
21645;SDS011;10984;45.712;4.800;2023-03-23T08:22:04;2.83;;;1.33;;
21645;SDS011;10984;45.712;4.800;2023-03-23T08:24:30;4.32;;;1.73;;
21645;SDS011;10984;45.712;4.800;2023-03-23T08:26:57;9.45;;;2.72;;
21645;SDS011;10984;45.712;4.800;2023-03-23T08:29:24;2.50;;;1.20;;
21645;SDS011;10984;45.712;4.800;2023-03-23T08:31:50;4.30;;;1.40;;
21645;SDS011;10984;45.712;4.800;2023-03-23T08:34:15;6.72;;;1.67;;
21645;SDS011;10984;45.712;4.800;2023-03-23T08:36:41;2.92;;;1.30;;
21645;SDS011;10984;45.712;4.800;2023-03-23T08:39:09;4.07;;;1.40;;
21645;SDS011;10984;45.712;4.800;2023-03-23T08:41:35;2.83;;;1.25;;
21645;SDS011;10984;45.712;4.800;2023-03-23T08:44:00;3.10;;;1.35;;
21645;SDS011;10984;45.712;4.800;2023-03-23T08:46:26;2.38;;;1.20;;
21645;SDS011;10984;45.712;4.800;2023-03-23T08:48:52;4.72;;;1.52;;
21645;SDS011;10984;45.712;4.800;2023-03-23T08:51:19;3.47;;;1.42;;
21645;SDS011;10984;45.712;4.800;2023-03-23T08:53:45;5.28;;;1.67;;
21645;SDS011;10984;45.712;4.800;2023-03-23T08:56:10;4.88;;;1.40;;
21645;SDS011;10984;45.712;4.800;2023-03-23T08:58:37;3.33;;;1.20;;
21645;SDS011;10984;45.712;4.800;2023-03-23T09:01:04;3.45;;;1.20;;
21645;SDS011;10984;45.712;4.800;2023-03-23T09:03:31;3.10;;;1.52;;
21645;SDS011;10984;45.712;4.800;2023-03-23T09:08:42;2.70;;;1.35;;
21645;SDS011;10984;45.712;4.800;2023-03-23T09:11:08;4.47;;;1.92;;
21645;SDS011;10984;45.712;4.800;2023-03-23T09:13:35;3.70;;;1.60;;
21645;SDS011;10984;45.712;4.800;2023-03-23T09:16:02;2.85;;;1.30;;
21645;SDS011;10984;45.712;4.800;2023-03-23T09:18:29;2.90;;;1.42;;
21645;SDS011;10984;45.712;4.800;2023-03-23T09:20:57;2.58;;;1.20;;
21645;SDS011;10984;45.712;4.800;2023-03-23T09:23:24;2.03;;;1.02;;
21645;SDS011;10984;45.712;4.800;2023-03-23T09:25:51;2.85;;;1.42;;
21645;SDS011;10984;45.712;4.800;2023-03-23T09:28:17;3.33;;;1.40;;
21645;SDS011;10984;45.712;4.800;2023-03-23T09:30:43;4.47;;;1.42;;
21645;SDS011;10984;45.712;4.800;2023-03-23T09:33:10;4.35;;;1.73;;
21645;SDS011;10984;45.712;4.800;2023-03-23T09:35:36;4.75;;;1.80;;
21645;SDS011;10984;45.712;4.800;2023-03-23T09:38:03;3.85;;;1.52;;
21645;SDS011;10984;45.712;4.800;2023-03-23T09:52:13;5.72;;;1.48;;
21645;SDS011;10984;45.712;4.800;2023-03-23T09:57:40;3.17;;;1.55;;
21645;SDS011;10984;45.712;4.800;2023-03-23T10:03:17;4.40;;;1.77;;
21645;SDS011;10984;45.712;4.800;2023-03-23T10:05:45;2.88;;;1.40;;
21645;SDS011;10984;45.712;4.800;2023-03-23T10:08:13;3.20;;;1.20;;
21645;SDS011;10984;45.712;4.800;2023-03-23T10:31:26;3.30;;;1.30;;
21645;SDS011;10984;45.712;4.800;2023-03-23T10:34:13;7.10;;;1.80;;
21645;SDS011;10984;45.712;4.800;2023-03-23T10:40:03;4.70;;;1.73;;
21645;SDS011;10984;45.712;4.800;2023-03-23T10:42:36;3.58;;;1.40;;
21645;SDS011;10984;45.712;4.800;2023-03-23T10:50:36;3.55;;;1.65;;
21645;SDS011;10984;45.712;4.800;2023-03-23T10:53:11;3.30;;;1.55;;
21645;SDS011;10984;45.712;4.800;2023-03-23T10:55:43;4.47;;;2.10;;
21645;SDS011;10984;45.712;4.800;2023-03-23T10:58:22;3.85;;;1.75;;
21645;SDS011;10984;45.712;4.800;2023-03-23T11:00:50;3.63;;;1.55;;
21645;SDS011;10984;45.712;4.800;2023-03-23T11:05:43;3.63;;;1.65;;
21645;SDS011;10984;45.712;4.800;2023-03-23T11:14:28;4.07;;;1.92;;
21645;SDS011;10984;45.712;4.800;2023-03-23T11:16:59;3.53;;;1.73;;
21645;SDS011;10984;45.712;4.800;2023-03-23T11:25:00;4.82;;;2.03;;
21645;SDS011;10984;45.712;4.800;2023-03-23T11:27:29;11.88;;;2.80;;
21645;SDS011;10984;45.712;4.800;2023-03-23T11:33:00;3.42;;;1.85;;
21645;SDS011;10984;45.712;4.800;2023-03-23T11:35:27;6.55;;;2.33;;
21645;SDS011;10984;45.712;4.800;2023-03-23T11:37:55;3.65;;;1.90;;
21645;SDS011;10984;45.712;4.800;2023-03-23T11:40:23;4.30;;;1.98;;
21645;SDS011;10984;45.712;4.800;2023-03-23T11:45:19;4.95;;;2.30;;
21645;SDS011;10984;45.712;4.800;2023-03-23T11:56:54;6.18;;;2.30;;
21645;SDS011;10984;45.712;4.800;2023-03-23T12:48:56;4.60;;;2.20;;
21645;SDS011;10984;45.712;4.800;2023-03-23T12:51:26;5.95;;;1.88;;
21645;SDS011;10984;45.712;4.800;2023-03-23T13:02:32;7.30;;;2.50;;
21645;SDS011;10984;45.712;4.800;2023-03-23T13:07:49;5.05;;;2.17;;
21645;SDS011;10984;45.712;4.800;2023-03-23T13:13:25;4.15;;;2.35;;
21645;SDS011;10984;45.712;4.800;2023-03-23T13:16:07;3.83;;;2.03;;
21645;SDS011;10984;45.712;4.800;2023-03-23T13:24:24;3.58;;;2.00;;
21645;SDS011;10984;45.712;4.800;2023-03-23T13:26:54;4.55;;;2.05;;
21645;SDS011;10984;45.712;4.800;2023-03-23T13:29:43;5.72;;;2.10;;
21645;SDS011;10984;45.712;4.800;2023-03-23T13:32:12;3.80;;;2.10;;
21645;SDS011;10984;45.712;4.800;2023-03-23T13:34:41;5.97;;;2.03;;
21645;SDS011;10984;45.712;4.800;2023-03-23T13:42:57;5.60;;;2.70;;
21645;SDS011;10984;45.712;4.800;2023-03-23T13:48:27;4.80;;;2.50;;
21645;SDS011;10984;45.712;4.800;2023-03-23T13:59:35;5.50;;;2.47;;
21645;SDS011;10984;45.712;4.800;2023-03-23T14:05:08;7.68;;;2.83;;
21645;SDS011;10984;45.712;4.800;2023-03-23T14:07:55;6.40;;;2.80;;
21645;SDS011;10984;45.712;4.800;2023-03-23T14:10:25;5.47;;;2.67;;
21645;SDS011;10984;45.712;4.800;2023-03-23T14:12:57;7.25;;;2.65;;
21645;SDS011;10984;45.712;4.800;2023-03-23T14:15:28;5.45;;;2.40;;
21645;SDS011;10984;45.712;4.800;2023-03-23T14:17:55;5.97;;;3.58;;
21645;SDS011;10984;45.712;4.800;2023-03-23T14:20:25;5.47;;;3.08;;
21645;SDS011;10984;45.712;4.800;2023-03-23T14:22:55;6.60;;;3.03;;
21645;SDS011;10984;45.712;4.800;2023-03-23T14:25:22;6.55;;;3.38;;
21645;SDS011;10984;45.712;4.800;2023-03-23T14:27:52;4.90;;;3.10;;
21645;SDS011;10984;45.712;4.800;2023-03-23T14:33:04;6.75;;;3.28;;
21645;SDS011;10984;45.712;4.800;2023-03-23T14:38:16;7.45;;;3.05;;
21645;SDS011;10984;45.712;4.800;2023-03-23T14:40:49;5.68;;;2.38;;
21645;SDS011;10984;45.712;4.800;2023-03-23T14:43:16;5.20;;;2.85;;
21645;SDS011;10984;45.712;4.800;2023-03-23T14:45:46;4.00;;;2.50;;
21645;SDS011;10984;45.712;4.800;2023-03-23T14:48:15;5.45;;;2.85;;
21645;SDS011;10984;45.712;4.800;2023-03-23T14:56:16;6.60;;;3.30;;
21645;SDS011;10984;45.712;4.800;2023-03-23T14:58:47;6.97;;;2.53;;
21645;SDS011;10984;45.712;4.800;2023-03-23T15:04:02;6.68;;;3.33;;
21645;SDS011;10984;45.712;4.800;2023-03-23T15:06:30;5.45;;;2.60;;
21645;SDS011;10984;45.712;4.800;2023-03-23T15:09:01;5.85;;;2.83;;
21645;SDS011;10984;45.712;4.800;2023-03-23T15:22:49;5.13;;;2.92;;
21645;SDS011;10984;45.712;4.800;2023-03-23T15:33:16;5.95;;;2.83;;
21645;SDS011;10984;45.712;4.800;2023-03-23T15:38:31;5.30;;;3.20;;
21645;SDS011;10984;45.712;4.800;2023-03-23T15:41:01;5.75;;;3.45;;
21645;SDS011;10984;45.712;4.800;2023-03-23T15:51:30;7.03;;;3.30;;
21645;SDS011;10984;45.712;4.800;2023-03-23T15:53:57;5.25;;;3.28;;
21645;SDS011;10984;45.712;4.800;2023-03-23T15:56:23;5.47;;;2.97;;
21645;SDS011;10984;45.712;4.800;2023-03-23T15:58:50;5.07;;;3.10;;
21645;SDS011;10984;45.712;4.800;2023-03-23T16:06:46;5.15;;;2.80;;
21645;SDS011;10984;45.712;4.800;2023-03-23T16:09:17;6.57;;;2.72;;
21645;SDS011;10984;45.712;4.800;2023-03-23T16:11:43;3.78;;;2.17;;
21645;SDS011;10984;45.712;4.800;2023-03-23T16:14:09;5.80;;;2.42;;
21645;SDS011;10984;45.712;4.800;2023-03-23T16:19:19;4.10;;;2.17;;
21645;SDS011;10984;45.712;4.800;2023-03-23T16:21:48;7.22;;;2.42;;
21645;SDS011;10984;45.712;4.800;2023-03-23T16:24:14;4.93;;;2.40;;
21645;SDS011;10984;45.712;4.800;2023-03-23T16:26:39;4.32;;;2.20;;
21645;SDS011;10984;45.712;4.800;2023-03-23T16:31:50;5.95;;;2.70;;
21645;SDS011;10984;45.712;4.800;2023-03-23T16:34:15;5.97;;;2.40;;
21645;SDS011;10984;45.712;4.800;2023-03-23T16:36:41;6.72;;;2.20;;
21645;SDS011;10984;45.712;4.800;2023-03-23T16:39:08;4.68;;;2.30;;
21645;SDS011;10984;45.712;4.800;2023-03-23T16:41:35;4.95;;;2.70;;
21645;SDS011;10984;45.712;4.800;2023-03-23T16:44:01;4.80;;;2.28;;
21645;SDS011;10984;45.712;4.800;2023-03-23T16:46:27;4.20;;;2.30;;
21645;SDS011;10984;45.712;4.800;2023-03-23T16:48:53;5.07;;;2.03;;
21645;SDS011;10984;45.712;4.800;2023-03-23T16:51:19;6.93;;;2.10;;
21645;SDS011;10984;45.712;4.800;2023-03-23T16:53:45;5.20;;;2.40;;
21645;SDS011;10984;45.712;4.800;2023-03-23T16:56:12;4.15;;;2.08;;
21645;SDS011;10984;45.712;4.800;2023-03-23T16:58:37;5.05;;;2.17;;
21645;SDS011;10984;45.712;4.800;2023-03-23T17:01:03;4.88;;;2.05;;
21645;SDS011;10984;45.712;4.800;2023-03-23T17:03:30;5.10;;;2.03;;
21645;SDS011;10984;45.712;4.800;2023-03-23T17:05:55;5.57;;;1.88;;
21645;SDS011;10984;45.712;4.800;2023-03-23T17:08:24;7.50;;;2.15;;
21645;SDS011;10984;45.712;4.800;2023-03-23T17:10:50;3.72;;;2.20;;
21645;SDS011;10984;45.712;4.800;2023-03-23T17:13:16;3.42;;;1.95;;
21645;SDS011;10984;45.712;4.800;2023-03-23T17:15:42;3.33;;;1.98;;
21645;SDS011;10984;45.712;4.800;2023-03-23T17:18:09;4.28;;;2.10;;
21645;SDS011;10984;45.712;4.800;2023-03-23T17:20:35;4.13;;;2.20;;
21645;SDS011;10984;45.712;4.800;2023-03-23T17:23:01;5.20;;;1.83;;
21645;SDS011;10984;45.712;4.800;2023-03-23T17:25:27;3.50;;;1.83;;
21645;SDS011;10984;45.712;4.800;2023-03-23T17:27:54;3.60;;;1.95;;
21645;SDS011;10984;45.712;4.800;2023-03-23T17:30:21;5.68;;;1.75;;
21645;SDS011;10984;45.712;4.800;2023-03-23T17:32:47;3.40;;;1.85;;
21645;SDS011;10984;45.712;4.800;2023-03-23T17:35:13;3.42;;;1.70;;
21645;SDS011;10984;45.712;4.800;2023-03-23T17:37:40;5.55;;;2.10;;
21645;SDS011;10984;45.712;4.800;2023-03-23T17:40:07;4.50;;;2.15;;
21645;SDS011;10984;45.712;4.800;2023-03-23T17:42:35;4.60;;;2.42;;
21645;SDS011;10984;45.712;4.800;2023-03-23T17:45:02;3.58;;;1.77;;
21645;SDS011;10984;45.712;4.800;2023-03-23T17:47:29;7.07;;;2.10;;
21645;SDS011;10984;45.712;4.800;2023-03-23T17:49:54;4.80;;;2.38;;
21645;SDS011;10984;45.712;4.800;2023-03-23T17:52:20;4.07;;;2.13;;
21645;SDS011;10984;45.712;4.800;2023-03-23T17:54:46;10.00;;;2.67;;
21645;SDS011;10984;45.712;4.800;2023-03-23T17:57:12;4.03;;;2.25;;
21645;SDS011;10984;45.712;4.800;2023-03-23T17:59:38;3.20;;;1.83;;
21645;SDS011;10984;45.712;4.800;2023-03-23T18:02:03;5.40;;;2.50;;
21645;SDS011;10984;45.712;4.800;2023-03-23T18:04:30;5.38;;;2.20;;
21645;SDS011;10984;45.712;4.800;2023-03-23T18:06:56;5.82;;;2.00;;
21645;SDS011;10984;45.712;4.800;2023-03-23T18:09:22;5.15;;;2.10;;
21645;SDS011;10984;45.712;4.800;2023-03-23T18:11:49;5.82;;;2.42;;
21645;SDS011;10984;45.712;4.800;2023-03-23T18:14:15;4.60;;;2.20;;
21645;SDS011;10984;45.712;4.800;2023-03-23T18:16:41;5.55;;;2.53;;
21645;SDS011;10984;45.712;4.800;2023-03-23T18:19:07;3.80;;;2.05;;
21645;SDS011;10984;45.712;4.800;2023-03-23T18:21:33;5.93;;;2.22;;
21645;SDS011;10984;45.712;4.800;2023-03-23T18:23:59;5.72;;;2.38;;
21645;SDS011;10984;45.712;4.800;2023-03-23T18:26:24;6.80;;;2.50;;
21645;SDS011;10984;45.712;4.800;2023-03-23T18:28:51;4.53;;;2.40;;
21645;SDS011;10984;45.712;4.800;2023-03-23T18:31:17;4.13;;;2.20;;
21645;SDS011;10984;45.712;4.800;2023-03-23T18:36:28;5.13;;;3.22;;
21645;SDS011;10984;45.712;4.800;2023-03-23T18:38:55;5.00;;;2.85;;
21645;SDS011;10984;45.712;4.800;2023-03-23T18:41:21;4.20;;;2.60;;
21645;SDS011;10984;45.712;4.800;2023-03-23T18:43:47;5.65;;;2.72;;
21645;SDS011;10984;45.712;4.800;2023-03-23T18:46:12;4.57;;;2.67;;
21645;SDS011;10984;45.712;4.800;2023-03-23T18:48:38;5.68;;;2.60;;
21645;SDS011;10984;45.712;4.800;2023-03-23T18:51:04;4.35;;;2.70;;
21645;SDS011;10984;45.712;4.800;2023-03-23T18:53:30;4.95;;;2.90;;
21645;SDS011;10984;45.712;4.800;2023-03-23T18:58:41;5.47;;;2.60;;
21645;SDS011;10984;45.712;4.800;2023-03-23T19:01:09;4.80;;;2.45;;
21645;SDS011;10984;45.712;4.800;2023-03-23T19:03:37;4.40;;;2.40;;
21645;SDS011;10984;45.712;4.800;2023-03-23T19:06:04;4.28;;;2.30;;
21645;SDS011;10984;45.712;4.800;2023-03-23T19:08:30;5.40;;;2.70;;
21645;SDS011;10984;45.712;4.800;2023-03-23T19:10:57;4.75;;;2.42;;
21645;SDS011;10984;45.712;4.800;2023-03-23T19:13:25;3.72;;;2.38;;
21645;SDS011;10984;45.712;4.800;2023-03-23T19:15:52;7.35;;;2.60;;
21645;SDS011;10984;45.712;4.800;2023-03-23T19:18:18;10.45;;;3.15;;
21645;SDS011;10984;45.712;4.800;2023-03-23T19:20:43;4.63;;;2.03;;
21645;SDS011;10984;45.712;4.800;2023-03-23T19:23:11;4.72;;;2.53;;
21645;SDS011;10984;45.712;4.800;2023-03-23T19:25:37;4.47;;;2.38;;
21645;SDS011;10984;45.712;4.800;2023-03-23T19:28:02;4.18;;;2.10;;
21645;SDS011;10984;45.712;4.800;2023-03-23T19:30:28;5.95;;;3.08;;
21645;SDS011;10984;45.712;4.800;2023-03-23T19:32:53;4.95;;;2.00;;
21645;SDS011;10984;45.712;4.800;2023-03-23T19:35:19;5.00;;;2.72;;